Time;durP1;ratioP1;P1;durP2;ratioP2;P2;SDS_P1;SDS_P2;PMS_P1;PMS_P2;Temp;Humidity;BMP_temperature;BMP_pressure;BME280_temperature;BME280_humidity;BME280_pressure;Samples;Min_cycle;Max_cycle;Signal;HPM_P1;HPM_P2
2021/09/22 00:02:09;;;;;;;18.85;16.92;;;10.80;84.50;;;;;;5011024;29;20168;-75
2021/09/22 00:04:42;;;;;;;17.85;16.15;;;10.80;84.00;;;;;;5009479;29;20053;-74
2021/09/22 00:07:14;;;;;;;17.75;16.05;;;10.90;83.70;;;;;;5007445;29;20060;-75
2021/09/22 00:09:45;;;;;;;18.00;16.30;;;10.90;83.40;;;;;;4992269;29;20045;-74
2021/09/22 00:12:17;;;;;;;19.00;17.15;;;10.90;83.40;;;;;;5010131;29;20064;-75
2021/09/22 00:14:50;;;;;;;18.00;16.30;;;10.90;83.80;;;;;;4994371;29;20152;-75
2021/09/22 00:17:22;;;;;;;18.88;17.00;;;10.80;83.60;;;;;;5014313;29;20056;-75
2021/09/22 00:19:54;;;;;;;18.05;16.35;;;10.80;83.80;;;;;;4997149;29;20560;-75
2021/09/22 00:22:25;;;;;;;19.02;16.60;;;10.80;83.80;;;;;;5014575;29;20060;-75
2021/09/22 00:24:57;;;;;;;19.38;17.48;;;10.80;83.60;;;;;;5012452;29;20162;-74
2021/09/22 00:27:29;;;;;;;20.95;19.00;;;10.70;83.90;;;;;;5012746;29;20134;-76
2021/09/22 00:30:01;;;;;;;20.77;18.83;;;10.70;84.70;;;;;;4998400;29;20638;-74
2021/09/22 00:32:33;;;;;;;19.00;17.15;;;10.70;83.80;;;;;;5013703;29;20149;-75
2021/09/22 00:35:07;;;;;;;19.08;17.27;;;10.70;84.10;;;;;;5012733;29;20049;-74
2021/09/22 00:37:39;;;;;;;18.65;16.95;;;10.70;83.90;;;;;;5011744;29;20130;-75
2021/09/22 00:40:12;;;;;;;18.92;17.02;;;10.70;83.80;;;;;;5011911;29;20105;-74
2021/09/22 00:42:44;;;;;;;18.65;16.83;;;10.70;83.00;;;;;;5012773;29;20137;-74
2021/09/22 00:45:17;;;;;;;18.02;16.38;;;10.70;82.70;;;;;;5012668;29;20781;-74
2021/09/22 00:47:49;;;;;;;19.48;17.58;;;10.60;82.80;;;;;;5003612;29;20060;-75
2021/09/22 00:50:34;;;;;;;17.85;16.17;;;10.60;82.80;;;;;;4998703;29;20050;-74
2021/09/22 00:53:09;;;;;;;18.67;16.88;;;10.60;83.40;;;;;;5012744;29;20050;-74
2021/09/22 00:55:42;;;;;;;18.00;16.40;;;10.60;83.10;;;;;;4987096;29;20049;-75
2021/09/22 00:58:29;;;;;;;18.08;16.38;;;10.60;82.90;;;;;;5015003;29;20181;-75
2021/09/22 01:01:03;;;;;;;17.77;16.08;;;10.50;83.10;;;;;;4998066;29;20110;-75
2021/09/22 01:03:35;;;;;;;16.80;15.27;;;10.50;83.40;;;;;;5013592;29;20050;-74
2021/09/22 01:06:07;;;;;;;16.40;14.90;;;10.40;83.70;;;;;;5009732;29;20065;-73
2021/09/22 01:08:41;;;;;;;17.05;15.45;;;10.40;83.80;;;;;;5014470;29;20156;-75
2021/09/22 01:11:13;;;;;;;17.52;15.77;;;10.30;84.00;;;;;;5013168;29;20110;-74
2021/09/22 01:13:45;;;;;;;16.63;15.13;;;10.30;84.10;;;;;;5010754;29;20053;-74
2021/09/22 01:16:17;;;;;;;17.90;16.15;;;10.30;84.10;;;;;;5010501;29;20149;-74
2021/09/22 01:18:49;;;;;;;16.38;14.88;;;10.30;84.20;;;;;;5002480;29;20069;-74
2021/09/22 01:21:21;;;;;;;16.60;15.10;;;10.20;84.00;;;;;;4995104;29;20053;-74
2021/09/22 01:23:59;;;;;;;17.02;15.52;;;10.20;84.40;;;;;;5003343;29;20059;-73
2021/09/22 01:26:32;;;;;;;16.98;15.38;;;10.20;84.70;;;;;;4999750;29;20046;-74
2021/09/22 01:29:07;;;;;;;16.00;14.57;;;10.20;85.30;;;;;;5006056;29;20076;-74
2021/09/22 01:31:40;;;;;;;17.27;15.68;;;10.20;85.00;;;;;;4979532;29;20065;-74
2021/09/22 01:34:14;;;;;;;17.33;15.75;;;10.10;85.10;;;;;;4996510;29;20049;-74
2021/09/22 01:37:12;;;;;;;16.17;14.68;;;10.00;85.00;;;;;;5010377;29;20473;-74
2021/09/22 01:40:08;;;;;;;16.63;15.13;;;10.00;84.90;;;;;;4994607;29;20178;-75
2021/09/22 01:42:40;;;;;;;16.63;15.00;;;10.00;84.70;;;;;;4986903;29;20053;-74
2021/09/22 01:45:15;;;;;;;17.55;15.85;;;10.10;84.60;;;;;;5011963;29;20093;-75
2021/09/22 01:47:48;;;;;;;16.63;15.13;;;10.10;84.60;;;;;;5000372;29;20579;-75
2021/09/22 01:50:22;;;;;;;16.83;15.18;;;10.00;84.60;;;;;;5010003;29;20722;-73
2021/09/22 01:52:56;;;;;;;16.70;15.20;;;10.10;84.40;;;;;;5001285;29;20045;-74
2021/09/22 01:55:28;;;;;;;17.73;15.35;;;10.10;84.50;;;;;;4985671;29;20052;-73
2021/09/22 01:58:10;;;;;;;16.92;15.23;;;10.00;84.50;;;;;;5009859;29;20533;-73
2021/09/22 02:01:00;;;;;;;17.58;15.77;;;10.00;84.50;;;;;;5011391;29;20042;-74
2021/09/22 02:03:55;;;;;;;;;;;10.00;85.40;;;;;;5007970;29;20050;-73
2021/09/22 02:06:54;;;;;;;17.88;16.17;;;9.80;86.20;;;;;;5009824;29;19928;-73
2021/09/22 02:09:26;;;;;;;17.88;16.02;;;9.70;86.50;;;;;;4997785;29;20453;-73
2021/09/22 02:12:03;;;;;;;16.92;15.32;;;9.80;86.10;;;;;;5009284;29;20057;-73
2021/09/22 02:14:37;;;;;;;16.73;15.13;;;9.70;85.80;;;;;;5010274;29;20133;-74
2021/09/22 02:17:11;;;;;;;17.30;15.80;;;9.80;85.50;;;;;;5013569;29;20057;-73
2021/09/22 02:19:46;;;;;;;17.33;15.80;;;9.80;85.20;;;;;;4993485;29;20928;-73
2021/09/22 02:22:39;;;;;;;16.25;14.75;;;9.70;85.30;;;;;;5009578;29;20050;-72
2021/09/22 02:25:17;;;;;;;16.02;14.55;;;9.80;85.50;;;;;;5010628;29;20041;-73
2021/09/22 02:27:50;;;;;;;16.08;14.68;;;9.80;85.10;;;;;;5008492;29;20129;-73
2021/09/22 02:30:25;;;;;;;16.70;15.20;;;9.80;85.00;;;;;;4994576;29;20053;-73
2021/09/22 02:33:02;;;;;;;16.77;15.13;;;9.80;85.00;;;;;;4986414;29;20049;-74
2021/09/22 02:35:36;;;;;;;16.73;15.02;;;9.80;84.70;;;;;;4999907;29;20222;-73
2021/09/22 02:38:20;;;;;;;16.30;14.80;;;9.90;84.80;;;;;;5010075;29;20057;-73
2021/09/22 02:40:54;;;;;;;15.43;14.13;;;9.90;85.00;;;;;;5015590;29;20050;-73
2021/09/22 02:43:27;;;;;;;15.50;14.20;;;9.90;85.00;;;;;;4995335;29;21067;-73
2021/09/22 02:45:59;;;;;;;15.00;13.70;;;9.80;85.20;;;;;;5011115;29;20103;-73
2021/09/22 02:48:47;;;;;;;15.93;14.38;;;9.80;85.10;;;;;;5011152;29;20052;-73
2021/09/22 02:51:19;;;;;;;15.32;13.95;;;9.80;85.30;;;;;;5008668;29;20045;-73
2021/09/22 02:53:51;;;;;;;15.38;13.98;;;9.80;85.50;;;;;;4999718;29;20058;-74
2021/09/22 02:56:25;;;;;;;15.80;14.25;;;9.70;85.40;;;;;;4993406;29;20136;-73
2021/09/22 02:58:57;;;;;;;15.32;13.82;;;9.70;85.50;;;;;;4994106;29;20053;-73
2021/09/22 03:01:29;;;;;;;15.32;14.00;;;9.70;85.50;;;;;;5009219;29;20053;-74
2021/09/22 03:04:02;;;;;;;15.00;13.45;;;9.70;85.90;;;;;;5009399;29;20054;-73
2021/09/22 03:06:36;;;;;;;15.35;13.85;;;9.70;85.70;;;;;;4999442;29;20061;-73
2021/09/22 03:09:08;;;;;;;15.55;14.10;;;9.60;85.70;;;;;;5010570;29;20046;-73
2021/09/22 03:11:40;;;;;;;16.15;14.65;;;9.60;85.70;;;;;;4993193;29;20053;-73
2021/09/22 03:14:12;;;;;;;14.95;13.45;;;9.60;85.80;;;;;;5011721;29;20057;-73
2021/09/22 03:16:52;;;;;;;14.60;13.23;;;9.60;85.80;;;;;;4993595;29;20045;-72
2021/09/22 03:19:23;;;;;;;15.50;14.00;;;9.60;85.70;;;;;;5009182;29;20077;-73
2021/09/22 03:21:56;;;;;;;14.98;13.52;;;9.60;86.00;;;;;;5010692;29;20054;-74
2021/09/22 03:24:47;;;;;;;14.10;12.70;;;9.60;85.90;;;;;;4996858;29;21328;-74
2021/09/22 03:27:20;;;;;;;14.82;13.43;;;9.60;85.90;;;;;;4992190;29;20156;-74
2021/09/22 03:29:53;;;;;;;14.55;13.15;;;9.60;86.30;;;;;;5007243;29;20145;-74
2021/09/22 03:32:25;;;;;;;15.00;13.60;;;9.60;86.30;;;;;;5009654;29;20041;-74
2021/09/22 03:34:57;;;;;;;14.90;13.50;;;9.60;86.50;;;;;;4994717;29;20065;-73
2021/09/22 03:37:29;;;;;;;14.38;13.07;;;9.60;86.40;;;;;;4983615;29;20113;-74
2021/09/22 03:40:03;;;;;;;14.27;12.98;;;9.60;86.30;;;;;;5008039;29;20688;-74
2021/09/22 03:42:35;;;;;;;15.30;14.00;;;9.60;85.90;;;;;;5014381;29;20429;-74
2021/09/22 03:45:10;;;;;;;15.38;13.98;;;9.50;85.90;;;;;;4994876;29;20049;-74
2021/09/22 03:47:42;;;;;;;14.77;13.45;;;9.50;85.90;;;;;;5009408;29;20046;-74
2021/09/22 03:50:15;;;;;;;14.10;12.85;;;9.40;85.20;;;;;;4998003;29;20116;-74
2021/09/22 03:53:15;;;;;;;13.80;12.45;;;9.40;85.40;;;;;;5000046;29;20060;-74
2021/09/22 03:55:49;;;;;;;13.50;12.20;;;9.30;85.60;;;;;;5000182;29;20045;-74
2021/09/22 03:58:22;;;;;;;14.18;12.88;;;9.30;85.30;;;;;;5008851;29;20053;-74
2021/09/22 04:00:54;;;;;;;14.20;12.90;;;9.30;85.30;;;;;;5009162;29;20403;-74
2021/09/22 04:03:26;;;;;;;14.90;13.60;;;9.30;85.30;;;;;;4993543;29;20679;-75
2021/09/22 04:05:58;;;;;;;14.40;13.02;;;9.30;85.40;;;;;;4998444;29;20048;-74
2021/09/22 04:08:30;;;;;;;15.05;13.60;;;9.30;85.40;;;;;;4993547;29;20058;-74
2021/09/22 04:11:02;;;;;;;15.00;13.70;;;9.40;85.30;;;;;;5009269;29;20508;-74
2021/09/22 04:13:35;;;;;;;14.23;13.02;;;9.40;85.40;;;;;;4984118;29;20053;-74
2021/09/22 04:16:12;;;;;;;14.57;13.18;;;9.40;86.00;;;;;;4984532;29;20478;-74
2021/09/22 04:18:44;;;;;;;14.07;12.25;;;9.40;85.60;;;;;;5008481;29;20049;-73
2021/09/22 04:21:16;;;;;;;15.23;13.82;;;9.30;85.70;;;;;;5009431;29;20050;-73
2021/09/22 04:23:48;;;;;;;14.23;13.00;;;9.30;85.90;;;;;;5008548;29;20049;-74
2021/09/22 04:26:20;;;;;;;13.30;12.10;;;9.30;86.00;;;;;;5007751;29;20046;-74
2021/09/22 04:29:00;;;;;;;13.50;12.20;;;9.30;85.90;;;;;;4982872;29;20050;-74
2021/09/22 04:31:51;;;;;;;13.18;11.98;;;9.20;86.10;;;;;;5010400;29;20056;-73
2021/09/22 04:34:41;;;;;;;14.13;12.63;;;9.20;86.10;;;;;;5009631;29;20181;-73
2021/09/22 04:37:35;;;;;;;;;;;9.20;86.20;;;;;;4996026;29;20076;-73
2021/09/22 04:40:29;;;;;;;13.82;12.52;;;9.20;86.20;;;;;;5009480;29;20028;-73
2021/09/22 04:43:19;;;;;;;14.00;12.60;;;9.20;86.10;;;;;;4997198;29;20057;-73
2021/09/22 04:46:10;;;;;;;14.20;12.90;;;9.20;86.30;;;;;;5010079;29;20129;-73
2021/09/22 04:49:01;;;;;;;14.15;12.95;;;9.20;86.50;;;;;;4988018;29;20057;-73
2021/09/22 04:51:51;;;;;;;;;;;9.20;86.60;;;;;;5009765;29;20069;-73
2021/09/22 04:54:41;;;;;;;13.70;12.40;;;9.20;86.70;;;;;;5012399;29;20078;-73
2021/09/22 04:57:32;;;;;;;14.10;12.73;;;9.20;86.70;;;;;;5008664;29;20428;-73
2021/09/22 05:00:23;;;;;;;14.25;12.95;;;9.20;86.60;;;;;;5009477;29;20670;-73
2021/09/22 05:03:33;;;;;;;14.05;12.73;;;9.20;86.80;;;;;;4955913;29;20081;-72
2021/09/22 05:06:24;;;;;;;14.82;13.52;;;9.10;87.00;;;;;;4958625;29;20116;-74
2021/09/22 05:09:14;;;;;;;13.95;12.65;;;9.10;87.30;;;;;;5002596;29;20544;-73
2021/09/22 05:12:12;;;;;;;13.85;12.55;;;9.10;87.40;;;;;;5006719;29;20045;-74
2021/09/22 05:15:04;;;;;;;13.07;11.77;;;9.20;87.50;;;;;;5011163;29;20056;-74
2021/09/22 05:17:55;;;;;;;13.43;12.20;;;9.20;87.60;;;;;;5011942;29;20417;-74
2021/09/22 05:20:45;;;;;;;;;;;9.20;87.80;;;;;;4998833;29;20100;-73
2021/09/22 05:23:36;;;;;;;14.65;13.20;;;9.20;87.90;;;;;;5014401;29;20043;-74
2021/09/22 05:26:26;;;;;;;;;;;9.40;88.30;;;;;;4998583;29;20061;-72
2021/09/22 05:29:17;;;;;;;17.90;16.00;;;9.30;90.30;;;;;;5016129;29;19951;-73
2021/09/22 05:32:07;;;;;;;;;;;9.30;89.60;;;;;;5000353;29;20049;-73
2021/09/22 05:34:57;;;;;;;;;;;9.40;89.00;;;;;;5016010;29;20386;-74
2021/09/22 05:37:48;;;;;;;17.77;15.98;;;9.50;88.90;;;;;;5013486;29;20467;-74
2021/09/22 05:40:39;;;;;;;17.83;15.98;;;9.50;90.00;;;;;;5013348;29;20110;-73
2021/09/22 05:43:29;;;;;;;18.50;16.70;;;9.40;89.70;;;;;;5011853;29;20445;-73
2021/09/22 05:46:20;;;;;;;17.17;15.48;;;9.30;90.40;;;;;;5011834;29;20053;-73
2021/09/22 05:49:11;;;;;;;17.20;15.50;;;9.40;89.00;;;;;;4997802;29;20252;-72
2021/09/22 05:52:01;;;;;;;;;;;9.50;89.00;;;;;;5012909;29;20189;-72
2021/09/22 05:54:52;;;;;;;18.17;16.38;;;9.60;89.30;;;;;;5012954;29;19935;-71
2021/09/22 05:57:50;;;;;;;18.20;16.40;;;9.60;89.50;;;;;;5006244;29;20081;-72
2021/09/22 06:00:40;;;;;;;;;;;9.60;88.80;;;;;;5015139;29;20064;-72
2021/09/22 06:03:38;;;;;;;17.55;15.90;;;9.70;88.40;;;;;;4997704;29;19928;-72
2021/09/22 06:06:49;;;;;;;17.63;15.93;;;9.80;89.10;;;;;;4925844;30;20060;-71
2021/09/22 06:09:44;;;;;;;17.30;15.60;;;9.80;89.00;;;;;;4913063;30;20560;-72
2021/09/22 06:12:36;;;;;;;17.30;15.55;;;9.90;88.90;;;;;;4993477;29;20065;-73
2021/09/22 06:15:08;;;;;;;17.00;15.40;;;9.90;88.80;;;;;;5011862;29;20041;-72
2021/09/22 06:17:40;;;;;;;17.45;15.85;;;10.00;89.00;;;;;;5011750;29;21089;-74
2021/09/22 06:20:14;;;;;;;18.67;16.73;;;10.00;89.30;;;;;;5010519;29;20132;-73
2021/09/22 06:22:46;;;;;;;17.95;16.25;;;10.10;89.00;;;;;;5011357;29;20077;-73
2021/09/22 06:25:18;;;;;;;18.13;16.33;;;10.10;89.00;;;;;;5012732;29;20050;-72
2021/09/22 06:27:50;;;;;;;18.10;16.23;;;10.10;89.00;;;;;;5012151;29;20101;-72
2021/09/22 06:30:22;;;;;;;17.75;16.05;;;10.20;89.50;;;;;;5010324;29;20383;-73
2021/09/22 06:32:57;;;;;;;20.05;17.80;;;10.20;89.50;;;;;;5015906;29;20046;-73
2021/09/22 06:36:00;;;;;;;18.05;16.35;;;10.20;89.30;;;;;;4999242;29;20049;-72
2021/09/22 06:38:38;;;;;;;18.70;16.95;;;10.30;89.70;;;;;;4984533;29;20524;-73
2021/09/22 06:41:10;;;;;;;18.30;16.60;;;10.30;89.40;;;;;;4985122;29;20060;-73
2021/09/22 06:43:44;;;;;;;19.48;17.58;;;10.40;89.00;;;;;;4993507;29;20054;-72
2021/09/22 06:46:16;;;;;;;19.92;18.02;;;10.40;88.70;;;;;;5011130;29;20456;-72
2021/09/22 06:48:50;;;;;;;20.30;18.30;;;10.50;89.60;;;;;;4995693;29;20110;-73
2021/09/22 06:51:22;;;;;;;20.40;18.27;;;10.50;89.90;;;;;;5009369;29;20105;-72
2021/09/22 06:53:54;;;;;;;19.50;17.60;;;10.50;89.50;;;;;;5007625;29;20125;-72
2021/09/22 06:56:26;;;;;;;20.55;18.55;;;10.60;89.90;;;;;;5007440;29;20081;-72
2021/09/22 06:58:58;;;;;;;20.50;18.42;;;10.60;90.00;;;;;;4993256;29;20082;-72
2021/09/22 07:01:30;;;;;;;20.30;18.30;;;10.70;88.80;;;;;;5009708;29;20153;-72
2021/09/22 07:04:02;;;;;;;20.13;18.13;;;10.70;88.40;;;;;;5014433;29;20072;-73
2021/09/22 07:06:34;;;;;;;20.48;18.58;;;10.80;88.90;;;;;;4998908;29;20517;-73
2021/09/22 07:09:06;;;;;;;20.30;18.20;;;10.80;88.40;;;;;;5012664;29;20069;-73
2021/09/22 07:11:38;;;;;;;20.67;18.63;;;10.90;88.40;;;;;;5008174;29;20060;-73
2021/09/22 07:14:10;;;;;;;20.17;18.17;;;10.90;88.30;;;;;;5011130;29;20054;-73
2021/09/22 07:16:42;;;;;;;20.73;18.52;;;11.10;88.30;;;;;;5010006;29;20172;-73
2021/09/22 07:19:14;;;;;;;21.05;18.83;;;11.10;87.80;;;;;;4992217;29;20050;-72
2021/09/22 07:21:46;;;;;;;20.95;18.85;;;11.10;87.00;;;;;;5007815;29;20148;-73
2021/09/22 07:24:18;;;;;;;20.15;18.02;;;11.20;87.00;;;;;;5009520;29;20128;-72
2021/09/22 07:26:50;;;;;;;21.15;19.05;;;11.20;87.00;;;;;;5008959;29;20056;-72
2021/09/22 07:29:22;;;;;;;20.13;18.13;;;11.20;87.00;;;;;;5012191;29;20075;-73
2021/09/22 07:31:55;;;;;;;19.67;17.73;;;11.20;86.60;;;;;;5009054;29;20049;-73
2021/09/22 07:34:27;;;;;;;19.52;17.63;;;11.20;86.80;;;;;;5009462;29;20513;-71
2021/09/22 07:37:11;;;;;;;20.05;18.02;;;11.30;86.40;;;;;;5006567;29;20056;-73
2021/09/22 07:39:42;;;;;;;19.50;17.10;;;11.40;86.60;;;;;;5011774;29;20120;-73
2021/09/22 07:42:15;;;;;;;21.00;18.73;;;11.40;86.60;;;;;;5011971;29;20792;-73
2021/09/22 07:44:53;;;;;;;19.50;17.67;;;11.60;86.20;;;;;;4994584;29;20061;-72
2021/09/22 07:47:25;;;;;;;19.60;17.63;;;11.60;85.50;;;;;;5010755;29;20057;-72
2021/09/22 07:49:57;;;;;;;19.30;17.40;;;11.70;85.20;;;;;;5011818;29;20648;-72
2021/09/22 07:52:29;;;;;;;19.60;17.63;;;11.80;85.30;;;;;;4991813;29;20073;-72
2021/09/22 07:55:03;;;;;;;20.98;18.88;;;11.80;84.80;;;;;;4983374;29;20531;-73
2021/09/22 07:57:35;;;;;;;21.63;18.45;;;11.90;84.40;;;;;;5010554;29;20045;-73
2021/09/22 08:00:09;;;;;;;19.58;17.63;;;11.90;84.20;;;;;;5008344;29;20045;-72
2021/09/22 08:02:43;;;;;;;21.30;19.00;;;11.90;84.80;;;;;;5010433;29;20114;-73
2021/09/22 08:05:16;;;;;;;19.85;17.85;;;12.00;85.40;;;;;;5009064;29;20867;-73
2021/09/22 08:07:48;;;;;;;19.67;17.88;;;12.00;84.90;;;;;;5008419;29;20049;-73
2021/09/22 08:10:21;;;;;;;20.92;18.88;;;12.10;85.60;;;;;;5007799;29;20572;-72
2021/09/22 08:12:52;;;;;;;20.10;18.00;;;12.20;84.80;;;;;;4991397;29;20046;-74
2021/09/22 08:15:24;;;;;;;20.17;18.27;;;12.20;84.20;;;;;;5008993;29;20133;-74
2021/09/22 08:17:56;;;;;;;20.17;18.35;;;12.30;85.20;;;;;;5011728;29;20535;-74
2021/09/22 08:20:28;;;;;;;19.35;17.52;;;12.40;84.80;;;;;;5007789;29;20867;-73
2021/09/22 08:23:00;;;;;;;19.92;18.02;;;12.50;84.00;;;;;;4991251;29;20133;-74
2021/09/22 08:25:32;;;;;;;20.95;18.85;;;12.60;84.30;;;;;;4999044;29;20073;-75
2021/09/22 08:28:04;;;;;;;19.75;17.92;;;12.70;83.40;;;;;;5010406;29;20528;-74
2021/09/22 08:30:37;;;;;;;21.88;19.77;;;12.80;82.30;;;;;;4993388;29;20169;-74
2021/09/22 08:33:09;;;;;;;21.02;19.10;;;12.90;83.20;;;;;;5009683;29;20057;-75
2021/09/22 08:35:41;;;;;;;21.80;19.58;;;13.10;82.00;;;;;;5010748;29;20094;-74
2021/09/22 08:38:13;;;;;;;22.02;19.92;;;13.40;82.10;;;;;;5018368;29;20045;-74
2021/09/22 08:40:45;;;;;;;20.73;18.73;;;13.50;80.10;;;;;;5010490;29;20594;-74
2021/09/22 08:43:24;;;;;;;21.63;19.55;;;13.70;80.00;;;;;;5011664;29;20132;-75
2021/09/22 08:45:56;;;;;;;20.15;18.15;;;13.80;79.50;;;;;;5011600;29;20068;-73
2021/09/22 08:48:29;;;;;;;21.42;19.38;;;14.00;79.20;;;;;;5013511;29;20694;-74
2021/09/22 08:51:02;;;;;;;20.35;18.42;;;14.20;78.60;;;;;;5013886;29;20049;-74
2021/09/22 08:53:34;;;;;;;20.85;18.75;;;14.20;77.50;;;;;;5013415;29;20157;-74
2021/09/22 08:56:11;;;;;;;20.98;19.08;;;14.20;77.60;;;;;;5006892;29;20156;-74
2021/09/22 08:58:43;;;;;;;21.27;19.27;;;14.20;77.70;;;;;;4995414;29;20060;-75
2021/09/22 09:01:19;;;;;;;21.35;19.48;;;14.40;78.50;;;;;;5010897;29;20431;-75
2021/09/22 09:03:52;;;;;;;21.55;19.73;;;14.50;77.30;;;;;;5013582;29;20504;-74
2021/09/22 09:06:33;;;;;;;21.15;19.05;;;14.60;77.10;;;;;;5010504;29;20046;-75
2021/09/22 09:09:06;;;;;;;21.02;19.02;;;14.70;76.40;;;;;;4996273;29;20069;-75
2021/09/22 09:11:43;;;;;;;22.15;20.17;;;14.70;75.90;;;;;;5017138;29;20049;-74
2021/09/22 09:14:16;;;;;;;21.88;19.90;;;14.80;76.50;;;;;;5013965;29;20050;-75
2021/09/22 09:16:49;;;;;;;21.30;19.35;;;14.90;77.10;;;;;;5010106;29;20132;-73
2021/09/22 09:19:23;;;;;;;21.48;19.58;;;15.10;75.70;;;;;;5012673;29;20405;-73
2021/09/22 09:22:01;;;;;;;22.13;20.13;;;15.10;75.10;;;;;;4999222;29;20500;-74
2021/09/22 09:24:36;;;;;;;21.90;19.90;;;15.20;76.10;;;;;;5013972;29;20382;-74
2021/09/22 09:27:34;;;;;;;21.63;19.65;;;15.20;75.90;;;;;;5011412;29;20057;-74
2021/09/22 09:30:18;;;;;;;22.40;20.20;;;15.20;75.30;;;;;;5012688;29;20097;-75
2021/09/22 09:32:51;;;;;;;22.27;20.27;;;15.30;76.00;;;;;;5014458;29;20116;-77
2021/09/22 09:35:24;;;;;;;22.55;20.45;;;15.40;76.20;;;;;;5010557;29;20053;-76
2021/09/22 09:37:56;;;;;;;23.27;21.10;;;15.50;76.20;;;;;;5012737;29;20739;-76
2021/09/22 09:40:36;;;;;;;22.55;20.38;;;15.60;75.40;;;;;;5012419;29;20121;-76
2021/09/22 09:43:09;;;;;;;;;;;15.70;75.80;;;;;;5013518;29;20136;-76
2021/09/22 09:45:45;;;;;;;22.00;19.95;;;15.70;75.20;;;;;;5010862;29;20791;-78
2021/09/22 09:48:20;;;;;;;22.17;20.17;;;15.80;75.10;;;;;;4992151;29;20176;-77
2021/09/22 09:50:59;;;;;;;22.27;20.27;;;15.90;76.50;;;;;;5012212;29;20049;-77
2021/09/22 09:53:34;;;;;;;22.92;20.73;;;15.90;75.00;;;;;;5013625;29;20073;-77
2021/09/22 09:56:18;;;;;;;23.77;21.23;;;15.90;75.20;;;;;;5012869;29;20098;-77
2021/09/22 09:58:56;;;;;;;37.00;22.40;;;16.00;75.40;;;;;;4996149;29;20074;-77
2021/09/22 10:01:58;;;;;;;23.90;21.52;;;16.00;75.40;;;;;;5009542;29;20117;-77
2021/09/22 10:04:30;;;;;;;23.95;21.75;;;16.20;75.60;;;;;;4986580;29;20065;-76
2021/09/22 10:07:02;;;;;;;24.52;22.23;;;16.30;75.50;;;;;;4993474;29;20073;-77
2021/09/22 10:09:35;;;;;;;25.38;23.02;;;16.30;74.30;;;;;;5013195;29;20057;-77
2021/09/22 10:12:08;;;;;;;24.83;22.52;;;16.40;73.70;;;;;;5012284;29;20142;-76
2021/09/22 10:14:40;;;;;;;25.15;22.55;;;16.40;74.00;;;;;;5013102;29;20152;-76
2021/09/22 10:17:14;;;;;;;24.40;22.02;;;16.40;73.90;;;;;;4993574;29;20049;-77
2021/09/22 10:19:47;;;;;;;25.92;23.45;;;16.40;73.40;;;;;;5008676;29;20037;-76
2021/09/22 10:22:19;;;;;;;25.55;23.17;;;16.50;74.60;;;;;;5011369;29;20069;-77
2021/09/22 10:24:52;;;;;;;25.90;23.40;;;16.50;74.70;;;;;;5011956;29;20144;-77
2021/09/22 10:27:24;;;;;;;25.35;23.02;;;16.60;74.00;;;;;;5010692;29;20137;-78
2021/09/22 10:30:00;;;;;;;25.50;23.25;;;16.60;74.30;;;;;;4996427;29;20053;-75
2021/09/22 10:32:44;;;;;;;26.50;24.15;;;16.70;73.70;;;;;;5012170;29;20137;-77
2021/09/22 10:35:25;;;;;;;25.08;22.98;;;16.70;73.70;;;;;;4995536;29;20541;-76
2021/09/22 10:38:00;;;;;;;27.17;23.65;;;16.80;73.80;;;;;;5010686;29;20105;-76
2021/09/22 10:40:36;;;;;;;24.27;21.98;;;16.90;74.30;;;;;;5011143;29;20129;-77
2021/09/22 10:43:30;;;;;;;25.92;23.63;;;17.00;73.60;;;;;;5011389;29;20054;-77
2021/09/22 10:46:10;;;;;;;25.27;23.10;;;17.10;72.80;;;;;;5012155;29;20436;-78
2021/09/22 10:49:01;;;;;;;24.38;21.88;;;17.20;73.10;;;;;;5011490;29;20857;-76
2021/09/22 10:51:41;;;;;;;23.67;21.65;;;17.30;72.30;;;;;;5009515;29;20050;-77
2021/09/22 10:54:19;;;;;;;23.92;21.83;;;17.30;70.80;;;;;;5012288;29;20141;-76
2021/09/22 10:56:57;;;;;;;23.83;21.83;;;17.30;71.90;;;;;;4978754;29;20052;-77
2021/09/22 10:59:39;;;;;;;23.27;21.30;;;17.30;72.10;;;;;;4993616;29;20038;-77
2021/09/22 11:02:11;;;;;;;23.52;21.42;;;17.30;70.90;;;;;;4984582;29;20057;-76
2021/09/22 11:05:00;;;;;;;21.92;20.02;;;17.40;70.00;;;;;;5010140;29;20057;-75
2021/09/22 11:08:08;;;;;;;23.52;21.63;;;17.40;69.20;;;;;;5011045;29;20080;-75
2021/09/22 11:10:53;;;;;;;22.98;20.92;;;17.40;70.00;;;;;;5009892;29;20050;-76
2021/09/22 11:13:33;;;;;;;23.15;21.20;;;17.50;69.00;;;;;;5010232;29;20053;-75
2021/09/22 11:16:18;;;;;;;22.27;20.42;;;17.60;69.40;;;;;;5008916;29;20576;-76
2021/09/22 11:18:51;;;;;;;22.75;20.85;;;17.70;70.10;;;;;;5008764;29;20057;-74
2021/09/22 11:21:23;;;;;;;23.30;21.40;;;17.80;69.50;;;;;;5009693;29;20070;-75
2021/09/22 11:23:55;;;;;;;22.60;20.58;;;17.80;68.00;;;;;;5012620;29;20055;-75
2021/09/22 11:26:27;;;;;;;22.05;20.30;;;17.80;69.00;;;;;;5013784;29;20058;-75
2021/09/22 11:29:00;;;;;;;21.83;20.05;;;17.80;68.30;;;;;;5011583;29;20057;-75
2021/09/22 11:31:35;;;;;;;21.73;19.85;;;17.90;68.40;;;;;;5010787;29;20085;-75
2021/09/22 11:34:07;;;;;;;21.58;19.40;;;17.90;67.80;;;;;;4999749;29;20046;-77
2021/09/22 11:36:42;;;;;;;22.73;20.83;;;18.00;67.40;;;;;;4993386;29;20076;-77
2021/09/22 11:39:25;;;;;;;21.33;19.52;;;18.00;65.80;;;;;;5011898;29;20053;-76
2021/09/22 11:41:57;;;;;;;21.90;20.08;;;17.90;67.10;;;;;;5005787;29;20046;-75
2021/09/22 11:44:31;;;;;;;21.52;19.63;;;17.90;65.80;;;;;;5007088;29;20120;-75
2021/09/22 11:47:11;;;;;;;20.98;19.35;;;18.00;68.10;;;;;;5009058;29;20153;-75
2021/09/22 11:49:44;;;;;;;21.95;20.05;;;18.10;67.70;;;;;;4992848;29;20160;-75
2021/09/22 11:52:18;;;;;;;20.38;18.77;;;18.10;67.40;;;;;;5011005;29;20049;-76
2021/09/22 11:54:56;;;;;;;21.25;19.45;;;18.10;67.90;;;;;;4995648;29;20045;-75
2021/09/22 11:57:29;;;;;;;21.25;19.48;;;18.00;67.70;;;;;;4992139;29;20056;-74
2021/09/22 12:00:00;;;;;;;21.00;19.20;;;18.00;68.50;;;;;;5015897;29;20132;-76
2021/09/22 12:02:40;;;;;;;21.17;19.50;;;18.00;69.10;;;;;;4993881;29;20634;-76
2021/09/22 12:05:18;;;;;;;20.70;19.00;;;18.00;68.20;;;;;;5011014;29;20598;-74
2021/09/22 12:07:55;;;;;;;20.80;19.10;;;18.00;68.70;;;;;;5008163;29;20129;-75
2021/09/22 12:10:27;;;;;;;20.08;18.48;;;17.90;66.20;;;;;;5006606;29;20473;-76
2021/09/22 12:13:04;;;;;;;19.20;17.58;;;17.70;64.80;;;;;;5011607;29;20471;-78
2021/09/22 12:15:36;;;;;;;19.80;18.10;;;17.70;66.80;;;;;;5008500;29;20046;-76
2021/09/22 12:18:08;;;;;;;19.90;18.30;;;17.50;64.60;;;;;;4991178;29;20538;-76
2021/09/22 12:20:41;;;;;;;20.20;18.60;;;17.60;65.80;;;;;;5009783;29;20125;-76
2021/09/22 12:23:19;;;;;;;19.92;18.33;;;17.70;65.90;;;;;;4993902;29;20073;-76
2021/09/22 12:25:50;;;;;;;19.77;18.27;;;17.70;64.30;;;;;;5008373;29;20065;-76
2021/09/22 12:28:24;;;;;;;20.63;18.92;;;17.90;65.20;;;;;;4992437;29;20799;-75
2021/09/22 12:30:56;;;;;;;20.80;19.10;;;18.00;63.90;;;;;;5010338;29;20081;-76
2021/09/22 12:33:28;;;;;;;19.73;18.08;;;18.00;63.80;;;;;;5007439;29;20128;-75
2021/09/22 12:36:09;;;;;;;20.23;18.52;;;18.20;64.60;;;;;;5009998;29;20494;-75
2021/09/22 12:38:54;;;;;;;21.20;19.50;;;18.30;63.90;;;;;;5010626;29;20557;-76
2021/09/22 12:41:27;;;;;;;21.67;19.75;;;18.30;64.50;;;;;;4999036;29;20115;-75
2021/09/22 12:44:01;;;;;;;21.58;19.77;;;18.30;64.90;;;;;;5000375;29;20073;-75
2021/09/22 12:46:37;;;;;;;21.85;20.05;;;18.40;65.10;;;;;;5007063;29;20086;-75
2021/09/22 12:49:18;;;;;;;21.33;19.63;;;18.40;64.00;;;;;;5015789;29;20053;-75
2021/09/22 12:51:54;;;;;;;20.75;19.08;;;18.40;63.90;;;;;;4998043;29;20058;-76
2021/09/22 12:54:29;;;;;;;19.92;18.33;;;18.40;64.00;;;;;;5008888;29;20128;-75
2021/09/22 12:57:13;;;;;;;31.65;20.95;;;18.40;65.00;;;;;;5007544;29;20049;-74
2021/09/22 12:59:45;;;;;;;21.30;19.60;;;18.30;64.70;;;;;;5010368;29;20121;-75
2021/09/22 13:02:26;;;;;;;20.30;18.60;;;18.30;64.00;;;;;;5008130;29;20164;-74
2021/09/22 13:05:03;;;;;;;20.15;18.65;;;18.20;65.10;;;;;;5010101;29;20049;-73
2021/09/22 13:07:35;;;;;;;20.90;19.10;;;18.20;63.90;;;;;;5008124;29;20118;-75
2021/09/22 13:10:07;;;;;;;20.55;18.75;;;18.30;65.30;;;;;;5009014;29;20140;-76
2021/09/22 13:12:39;;;;;;;20.20;18.60;;;18.30;64.10;;;;;;5007174;29;20148;-75
2021/09/22 13:15:24;;;;;;;20.23;18.73;;;18.40;65.20;;;;;;5007689;29;20137;-76
2021/09/22 13:17:56;;;;;;;20.70;19.05;;;18.50;64.90;;;;;;5009482;29;20073;-75
2021/09/22 13:20:28;;;;;;;19.35;17.85;;;18.50;64.50;;;;;;4992708;29;20218;-76
2021/09/22 13:23:00;;;;;;;20.20;18.67;;;18.50;64.80;;;;;;5014235;29;20133;-76
2021/09/22 13:25:32;;;;;;;19.02;17.52;;;18.50;63.10;;;;;;5014089;29;20053;-75